createdAt,value
2017-09-24T00:02:16.960Z,94.00
2017-09-24T00:04:45.242Z,93.60
2017-09-24T00:07:13.182Z,93.30
2017-09-24T00:09:41.078Z,93.30
2017-09-24T00:12:09.521Z,93.00
2017-09-24T00:14:37.824Z,93.30
2017-09-24T00:17:05.952Z,92.90
2017-09-24T00:19:33.636Z,92.70
2017-09-24T00:22:01.177Z,92.60
2017-09-24T00:24:28.925Z,92.70
2017-09-24T00:26:56.628Z,92.50
2017-09-24T00:29:24.165Z,92.50
2017-09-24T00:31:51.735Z,92.30
2017-09-24T00:34:19.439Z,91.90
2017-09-24T00:36:47.749Z,92.40
2017-09-24T00:39:15.433Z,92.60
2017-09-24T00:41:42.970Z,93.00
2017-09-24T00:44:10.694Z,93.40
2017-09-24T00:46:38.208Z,93.80
2017-09-24T00:49:06.699Z,93.50
2017-09-24T00:51:34.240Z,93.60
2017-09-24T00:54:01.749Z,94.10
2017-09-24T00:56:30.071Z,94.30
2017-09-24T00:58:57.637Z,94.70
2017-09-24T01:01:25.181Z,95.00
2017-09-24T01:03:52.689Z,95.40
2017-09-24T01:06:20.242Z,95.80
2017-09-24T01:08:47.801Z,96.00
2017-09-24T01:11:15.317Z,96.10
2017-09-24T01:13:43.671Z,96.80
2017-09-24T01:16:12.324Z,97.60
2017-09-24T01:18:39.846Z,97.30
2017-09-24T01:21:07.698Z,98.20
2017-09-24T01:23:36.025Z,97.70
2017-09-24T01:26:03.581Z,97.10
2017-09-24T01:28:31.500Z,97.00
2017-09-24T01:30:59.004Z,97.30
2017-09-24T01:33:26.544Z,96.90
2017-09-24T01:35:54.104Z,97.00
2017-09-24T01:38:21.610Z,98.40
2017-09-24T01:40:49.912Z,99.00
2017-09-24T01:43:17.441Z,98.80
2017-09-24T01:45:45.717Z,99.90
2017-09-24T01:48:13.477Z,99.90
2017-09-24T01:50:40.988Z,99.90
2017-09-24T01:53:08.537Z,99.90
2017-09-24T01:55:36.828Z,99.10
2017-09-24T01:58:05.127Z,99.00
2017-09-24T02:00:32.881Z,98.70
2017-09-24T02:03:00.384Z,98.60
2017-09-24T02:05:28.700Z,99.90
2017-09-24T02:07:56.381Z,99.40
2017-09-24T02:10:23.877Z,99.10
2017-09-24T02:12:52.194Z,99.90
2017-09-24T02:15:19.901Z,99.70
2017-09-24T02:17:47.463Z,99.90
2017-09-24T02:20:15.000Z,99.90
2017-09-24T02:22:42.499Z,99.90
2017-09-24T02:25:11.544Z,99.90
2017-09-24T02:27:39.429Z,99.60
2017-09-24T02:30:07.183Z,99.20
2017-09-24T02:32:34.680Z,99.60
2017-09-24T02:35:03.156Z,99.90
2017-09-24T02:37:30.699Z,99.20
2017-09-24T02:39:58.405Z,99.90
2017-09-24T02:42:25.941Z,99.80
2017-09-24T02:44:54.237Z,99.90
2017-09-24T02:47:21.789Z,99.50
2017-09-24T02:49:49.310Z,99.90
2017-09-24T02:52:16.879Z,99.90
2017-09-24T02:54:44.442Z,99.70
2017-09-24T02:57:11.936Z,99.70
2017-09-24T02:59:40.203Z,99.40
2017-09-24T03:02:08.509Z,99.60
2017-09-24T03:04:36.612Z,99.10
2017-09-24T03:07:04.139Z,98.70
2017-09-24T03:09:31.646Z,99.90
2017-09-24T03:12:00.160Z,99.90
2017-09-24T03:14:27.877Z,99.90
2017-09-24T03:16:55.405Z,99.90
2017-09-24T03:19:22.900Z,99.00
2017-09-24T03:21:50.404Z,98.20
2017-09-24T03:24:17.936Z,97.70
2017-09-24T03:26:46.328Z,98.30
2017-09-24T03:29:14.284Z,97.90
2017-09-24T03:31:41.781Z,98.10
2017-09-24T03:34:09.334Z,98.80
2017-09-24T03:36:37.524Z,98.70
2017-09-24T03:39:05.482Z,98.50
2017-09-24T03:41:33.022Z,99.40
2017-09-24T03:44:00.705Z,99.10
2017-09-24T03:46:28.359Z,99.80
2017-09-24T03:48:56.055Z,99.60
2017-09-24T03:51:23.917Z,99.90
2017-09-24T03:53:51.412Z,99.90
2017-09-24T03:56:19.865Z,99.90
2017-09-24T03:58:47.392Z,99.90
2017-09-24T04:01:15.026Z,99.50
2017-09-24T04:03:42.726Z,99.50
2017-09-24T04:06:10.225Z,99.10
2017-09-24T04:08:38.520Z,99.60
2017-09-24T04:11:06.036Z,98.70
2017-09-24T04:13:33.702Z,98.50
2017-09-24T04:16:01.230Z,99.90
2017-09-24T04:18:28.752Z,99.90
2017-09-24T04:20:56.254Z,99.90
2017-09-24T04:23:23.753Z,99.90
2017-09-24T04:25:51.280Z,99.50
2017-09-24T04:28:18.797Z,99.00
2017-09-24T04:30:46.369Z,99.80
2017-09-24T04:33:14.268Z,99.90
2017-09-24T04:35:42.121Z,99.90
2017-09-24T04:38:09.644Z,99.50
2017-09-24T04:40:37.160Z,98.80
2017-09-24T04:43:04.883Z,99.70
2017-09-24T04:45:32.404Z,99.90
2017-09-24T04:48:00.720Z,99.90
2017-09-24T04:50:28.278Z,99.90
2017-09-24T04:52:55.834Z,99.90
2017-09-24T04:55:23.732Z,99.90
2017-09-24T04:57:51.397Z,99.90
2017-09-24T05:00:18.956Z,99.90
2017-09-24T05:02:46.587Z,99.90
2017-09-24T05:05:14.853Z,99.90
2017-09-24T05:07:42.522Z,99.90
2017-09-24T05:10:10.060Z,99.90
2017-09-24T05:12:37.556Z,99.90
2017-09-24T05:15:05.276Z,99.90
2017-09-24T05:17:32.780Z,99.90
2017-09-24T05:20:00.389Z,99.90
2017-09-24T05:22:28.726Z,99.90
2017-09-24T05:24:56.233Z,99.90
2017-09-24T05:27:23.750Z,99.90
2017-09-24T05:29:51.708Z,99.90
2017-09-24T05:32:19.237Z,99.90
2017-09-24T05:34:46.768Z,99.90
2017-09-24T05:37:14.279Z,99.90
2017-09-24T05:39:41.868Z,99.90
2017-09-24T05:42:09.380Z,99.90
2017-09-24T05:44:36.917Z,99.90
2017-09-24T05:47:04.445Z,99.90
2017-09-24T05:49:32.241Z,99.90
2017-09-24T05:52:00.080Z,99.90
2017-09-24T05:54:28.005Z,99.90
2017-09-24T05:56:55.533Z,99.90
2017-09-24T05:59:23.831Z,99.90
2017-09-24T06:01:51.729Z,99.90
2017-09-24T06:04:19.266Z,99.90
2017-09-24T06:06:46.829Z,99.90
2017-09-24T06:09:14.342Z,98.10
2017-09-24T06:11:41.868Z,94.90
2017-09-24T06:14:09.398Z,90.40
2017-09-24T06:16:36.952Z,89.50
2017-09-24T06:19:04.459Z,91.70
2017-09-24T06:21:31.957Z,84.40
2017-09-24T06:23:59.501Z,82.90
2017-09-24T06:26:27.796Z,82.50
2017-09-24T06:28:55.328Z,80.90
2017-09-24T06:31:23.271Z,75.80
2017-09-24T06:33:52.355Z,77.40
2017-09-24T06:36:19.876Z,71.60
2017-09-24T06:38:47.419Z,71.00
2017-09-24T06:41:14.920Z,72.30
2017-09-24T06:43:42.553Z,71.70
2017-09-24T06:46:10.485Z,73.50
2017-09-24T06:48:38.010Z,71.70
2017-09-24T06:51:05.628Z,76.20
2017-09-24T06:53:33.211Z,76.30
2017-09-24T06:56:01.564Z,69.60
2017-09-24T06:58:29.108Z,68.00
2017-09-24T07:00:57.386Z,65.50
2017-09-24T07:03:25.661Z,64.00
2017-09-24T07:05:53.192Z,61.40
2017-09-24T07:08:21.085Z,62.50
2017-09-24T07:10:49.516Z,62.90
2017-09-24T07:13:17.127Z,58.20
2017-09-24T07:15:44.886Z,60.60
2017-09-24T07:18:12.389Z,61.20
2017-09-24T07:20:40.670Z,60.90
2017-09-24T07:23:09.145Z,58.00
2017-09-24T07:25:37.048Z,58.60
2017-09-24T07:28:05.354Z,57.10
2017-09-24T07:30:33.628Z,56.00
2017-09-24T07:33:01.139Z,55.70
2017-09-24T07:35:28.680Z,53.80
2017-09-24T07:37:56.985Z,52.50
2017-09-24T07:40:25.338Z,51.90
2017-09-24T07:42:52.895Z,51.00
2017-09-24T07:45:20.583Z,51.80
2017-09-24T07:47:49.677Z,52.40
2017-09-24T07:50:17.244Z,51.60
2017-09-24T07:52:44.984Z,52.50
2017-09-24T07:55:12.505Z,48.90
2017-09-24T07:57:40.780Z,49.30
2017-09-24T08:00:08.728Z,48.90
2017-09-24T08:02:36.813Z,51.00
2017-09-24T08:05:05.265Z,49.20
2017-09-24T08:07:32.807Z,48.90
2017-09-24T08:10:00.471Z,47.50
2017-09-24T08:12:28.585Z,46.10
2017-09-24T08:14:56.489Z,45.10
2017-09-24T08:17:24.212Z,45.30
2017-09-24T08:19:52.501Z,44.70
2017-09-24T08:22:20.576Z,44.60
2017-09-24T08:24:48.891Z,45.40
2017-09-24T08:27:16.557Z,43.90
2017-09-24T08:29:44.867Z,42.80
2017-09-24T08:32:13.133Z,42.50
2017-09-24T08:34:41.517Z,41.20
2017-09-24T08:37:09.048Z,41.30
2017-09-24T08:39:36.557Z,42.20
2017-09-24T08:42:05.199Z,44.30
2017-09-24T08:44:32.724Z,45.40
2017-09-24T08:47:01.384Z,45.00
2017-09-24T08:49:28.880Z,44.70
2017-09-24T08:51:56.377Z,43.20
2017-09-24T08:54:24.304Z,44.10
2017-09-24T08:56:51.827Z,42.90
2017-09-24T08:59:20.143Z,45.50
2017-09-24T09:01:47.652Z,44.30
2017-09-24T09:04:15.186Z,43.80
2017-09-24T09:06:42.696Z,43.30
2017-09-24T09:09:10.232Z,42.40
2017-09-24T09:11:37.788Z,41.60
2017-09-24T09:14:05.420Z,40.40
2017-09-24T09:16:33.122Z,40.90
2017-09-24T09:19:00.655Z,41.00
2017-09-24T09:21:40.892Z,40.60
2017-09-24T09:24:08.821Z,40.70
2017-09-24T09:26:36.760Z,42.70
2017-09-24T09:29:04.690Z,40.90
2017-09-24T09:31:32.630Z,41.30
2017-09-24T09:34:00.535Z,41.40
2017-09-24T09:36:28.476Z,40.10
2017-09-24T09:38:56.744Z,39.70
2017-09-24T09:41:24.341Z,39.80
2017-09-24T09:43:52.270Z,40.70
2017-09-24T09:46:32.080Z,39.40
2017-09-24T09:49:00.380Z,38.10
2017-09-24T09:51:28.305Z,38.50
2017-09-24T09:53:55.826Z,38.70
2017-09-24T09:56:23.964Z,37.90
2017-09-24T09:58:51.465Z,40.50
2017-09-24T10:01:19.010Z,35.90
2017-09-24T10:03:47.647Z,35.80
2017-09-24T10:06:15.187Z,35.90
2017-09-24T10:08:49.947Z,35.20
2017-09-24T10:11:17.692Z,34.60
2017-09-24T10:13:45.597Z,33.90
2017-09-24T10:16:13.860Z,34.20
2017-09-24T10:18:41.441Z,30.50
2017-09-24T10:21:09.361Z,31.50
2017-09-24T10:23:37.284Z,31.90
2017-09-24T10:26:05.041Z,32.50
2017-09-24T10:28:44.764Z,32.80
2017-09-24T10:31:12.324Z,33.50
2017-09-24T10:33:40.641Z,34.00
2017-09-24T10:36:08.553Z,34.30
2017-09-24T10:38:36.444Z,35.10
2017-09-24T10:41:04.562Z,33.00
2017-09-24T10:43:33.217Z,31.70
2017-09-24T10:46:01.487Z,32.10
2017-09-24T10:48:29.416Z,32.10
2017-09-24T10:50:58.051Z,35.40
2017-09-24T10:53:25.998Z,37.70
2017-09-24T10:55:53.925Z,41.20
2017-09-24T10:58:21.437Z,42.20
2017-09-24T11:03:17.863Z,44.30
2017-09-24T11:05:45.392Z,45.40
2017-09-24T11:08:14.068Z,45.70
2017-09-24T11:10:41.632Z,45.30
2017-09-24T11:13:10.112Z,40.50
2017-09-24T11:15:38.456Z,37.30
2017-09-24T11:18:07.149Z,34.90
2017-09-24T11:20:34.650Z,34.10
2017-09-24T11:23:02.545Z,34.50
2017-09-24T11:25:31.257Z,33.20
2017-09-24T11:27:58.816Z,31.50
2017-09-24T11:30:27.084Z,30.70
2017-09-24T11:32:54.991Z,33.60
2017-09-24T11:35:22.938Z,34.70
2017-09-24T11:37:50.921Z,35.00
2017-09-24T11:40:19.233Z,34.70
2017-09-24T11:42:46.734Z,33.40
2017-09-24T11:45:15.078Z,32.50
2017-09-24T11:47:42.990Z,30.80
2017-09-24T11:50:11.258Z,31.40
2017-09-24T11:52:39.172Z,30.00
2017-09-24T11:55:07.488Z,30.20
2017-09-24T11:57:35.035Z,29.40
2017-09-24T12:00:03.325Z,27.90
2017-09-24T12:02:31.605Z,31.20
2017-09-24T12:05:00.422Z,34.90
2017-09-24T12:07:27.926Z,32.80
2017-09-24T12:09:55.424Z,29.70
2017-09-24T12:12:24.072Z,28.30
2017-09-24T12:14:51.824Z,27.00
2017-09-24T12:17:19.741Z,28.20
2017-09-24T12:19:48.172Z,29.70
2017-09-24T12:22:16.311Z,31.70
2017-09-24T12:29:42.209Z,38.40
2017-09-24T12:32:10.105Z,40.10
2017-09-24T12:34:38.122Z,42.50
2017-09-24T12:37:05.628Z,44.30
2017-09-24T12:39:33.762Z,45.50
2017-09-24T12:44:30.967Z,46.20
2017-09-24T12:46:59.385Z,46.10
2017-09-24T12:49:28.066Z,45.00
2017-09-24T12:54:24.820Z,43.20
2017-09-24T12:56:52.825Z,41.00
2017-09-24T12:59:20.779Z,38.80
2017-09-24T13:01:48.677Z,36.70
2017-09-24T13:04:16.966Z,35.90
2017-09-24T13:06:45.268Z,36.30
2017-09-24T13:09:12.777Z,35.30
2017-09-24T13:11:41.460Z,32.70
2017-09-24T13:14:10.054Z,32.80
2017-09-24T13:16:38.761Z,31.40
2017-09-24T13:19:07.799Z,31.30
2017-09-24T13:21:36.806Z,33.20
2017-09-24T13:24:05.112Z,34.00
2017-09-24T13:26:33.386Z,36.10
2017-09-24T13:29:01.693Z,35.40
2017-09-24T13:31:29.617Z,37.90
2017-09-24T13:33:58.313Z,39.80
2017-09-24T13:36:25.852Z,40.90
2017-09-24T13:38:54.124Z,42.10
2017-09-24T13:41:21.667Z,44.20
2017-09-24T13:43:49.222Z,45.40
2017-09-24T13:46:18.302Z,46.50
2017-09-24T13:48:46.597Z,47.00
2017-09-24T13:51:15.644Z,47.70
2017-09-24T13:53:44.322Z,49.10
2017-09-24T13:56:11.911Z,49.80
2017-09-24T13:58:40.592Z,49.90
2017-09-24T14:01:08.512Z,49.60
2017-09-24T14:03:37.174Z,50.20
2017-09-24T14:06:05.448Z,50.90
2017-09-24T14:08:33.732Z,51.30
2017-09-24T14:11:01.676Z,52.30
2017-09-24T14:13:30.029Z,51.60
2017-09-24T14:15:57.557Z,51.30
2017-09-24T14:18:26.219Z,51.00
2017-09-24T14:20:54.739Z,51.00
2017-09-24T14:23:22.437Z,50.80
2017-09-24T14:25:52.311Z,51.40
2017-09-24T14:28:20.616Z,50.80
2017-09-24T14:30:48.533Z,50.70
2017-09-24T14:33:16.108Z,49.50
2017-09-24T14:35:44.237Z,49.10
2017-09-24T14:38:13.247Z,49.70
2017-09-24T14:43:10.244Z,51.30
2017-09-24T14:45:37.749Z,48.50
2017-09-24T14:48:05.699Z,51.90
2017-09-24T14:53:03.245Z,53.30
2017-09-24T14:55:30.984Z,55.20
2017-09-24T14:57:58.539Z,54.30
2017-09-24T15:00:26.845Z,55.20
2017-09-24T15:02:55.652Z,56.70
2017-09-24T15:05:23.231Z,55.70
2017-09-24T15:07:51.202Z,56.70
2017-09-24T15:10:19.140Z,56.80
2017-09-24T15:12:46.888Z,56.70
2017-09-24T15:15:14.459Z,57.70
2017-09-24T15:17:41.989Z,58.30
2017-09-24T15:20:11.185Z,59.30
2017-09-24T15:22:38.737Z,57.90
2017-09-24T15:25:06.236Z,57.40
2017-09-24T15:27:34.332Z,57.30
2017-09-24T15:30:03.025Z,58.50
2017-09-24T15:32:30.565Z,58.00
2017-09-24T15:34:58.114Z,59.10
2017-09-24T15:37:26.784Z,58.80
2017-09-24T15:39:54.710Z,59.10
2017-09-24T15:42:22.633Z,59.30
2017-09-24T15:44:50.344Z,59.10
2017-09-24T15:47:18.297Z,60.00
2017-09-24T15:49:45.978Z,59.90
2017-09-24T15:52:13.892Z,60.10
2017-09-24T15:54:41.427Z,61.20
2017-09-24T15:57:09.725Z,59.80
2017-09-24T15:59:37.414Z,61.00
2017-09-24T16:02:04.968Z,59.80
2017-09-24T16:04:33.246Z,60.50
2017-09-24T16:07:00.786Z,60.90
2017-09-24T16:09:28.896Z,61.40
2017-09-24T16:11:56.852Z,62.10
2017-09-24T16:14:24.395Z,62.30
2017-09-24T16:16:52.808Z,63.20
2017-09-24T16:19:20.714Z,63.10
2017-09-24T16:21:48.255Z,63.40
2017-09-24T16:24:15.936Z,63.70
2017-09-24T16:26:44.226Z,66.00
2017-09-24T16:29:11.729Z,67.90
2017-09-24T16:31:39.301Z,68.30
2017-09-24T16:34:07.050Z,68.20
2017-09-24T16:36:34.959Z,68.70
2017-09-24T16:39:03.289Z,68.30
2017-09-24T16:41:30.800Z,68.90
2017-09-24T16:43:59.216Z,69.00
2017-09-24T16:46:27.492Z,69.30
2017-09-24T16:48:55.440Z,69.20
2017-09-24T16:51:22.969Z,69.70
2017-09-24T16:53:50.876Z,70.60
2017-09-24T16:56:18.631Z,71.50
2017-09-24T16:58:47.640Z,72.10
2017-09-24T17:03:44.647Z,70.30
2017-09-24T17:06:12.201Z,69.50
2017-09-24T17:08:39.716Z,68.20
2017-09-24T17:11:08.022Z,68.80
2017-09-24T17:13:35.523Z,69.10
2017-09-24T17:16:03.486Z,69.50
2017-09-24T17:18:32.492Z,68.50
2017-09-24T17:23:29.656Z,68.80
2017-09-24T17:25:57.258Z,69.80
2017-09-24T17:28:24.768Z,69.90
2017-09-24T17:30:52.306Z,69.60
2017-09-24T17:33:20.516Z,69.20
2017-09-24T17:35:48.061Z,69.50
2017-09-24T17:38:16.705Z,70.20
2017-09-24T17:40:44.313Z,70.50
2017-09-24T17:43:11.816Z,69.70
2017-09-24T17:45:40.127Z,69.70
2017-09-24T17:48:09.145Z,69.80
2017-09-24T17:50:37.414Z,70.20
2017-09-24T17:53:05.168Z,70.50
2017-09-24T17:55:32.668Z,71.20
2017-09-24T17:58:00.184Z,71.10
2017-09-24T18:00:28.297Z,71.50
2017-09-24T18:02:55.865Z,71.70
2017-09-24T18:05:23.443Z,72.40
2017-09-24T18:07:51.349Z,72.40
2017-09-24T18:10:18.917Z,73.70
2017-09-24T18:12:47.560Z,74.20
2017-09-24T18:15:15.729Z,74.60
2017-09-24T18:17:43.993Z,75.80
2017-09-24T18:20:11.497Z,75.20
2017-09-24T18:22:39.049Z,74.60
2017-09-24T18:25:06.977Z,73.80
2017-09-24T18:27:35.458Z,74.00
2017-09-24T18:30:03.414Z,73.80
2017-09-24T18:32:30.913Z,73.20
2017-09-24T18:34:58.425Z,73.20
2017-09-24T18:37:26.724Z,73.30
2017-09-24T18:39:54.268Z,73.40
2017-09-24T18:42:22.599Z,74.00
2017-09-24T18:44:50.352Z,73.70
2017-09-24T18:47:17.885Z,73.70
2017-09-24T18:49:45.983Z,74.00
2017-09-24T18:52:13.690Z,74.50
2017-09-24T18:54:42.926Z,74.30
2017-09-24T18:57:11.782Z,74.20
2017-09-24T18:59:39.841Z,74.90
2017-09-24T19:04:36.461Z,75.70
2017-09-24T19:07:04.376Z,75.70
2017-09-24T19:09:32.406Z,76.20
2017-09-24T19:12:00.463Z,76.10
2017-09-24T19:16:57.181Z,76.50
2017-09-24T19:19:25.849Z,77.50
2017-09-24T19:21:53.818Z,76.60
2017-09-24T19:24:22.677Z,77.00
2017-09-24T19:26:50.527Z,76.90
2017-09-24T19:29:18.786Z,76.70
2017-09-24T19:31:46.895Z,77.10
2017-09-24T19:34:15.728Z,77.00
2017-09-24T19:36:44.234Z,77.50
2017-09-24T19:39:12.665Z,77.10
2017-09-24T19:41:40.937Z,76.60
2017-09-24T19:44:09.821Z,76.90
2017-09-24T19:46:37.919Z,75.90
2017-09-24T19:49:05.764Z,75.50
2017-09-24T19:51:34.500Z,75.60
2017-09-24T19:54:02.681Z,74.60
2017-09-24T19:59:00.436Z,75.50
2017-09-24T20:03:57.009Z,78.70
2017-09-24T20:06:24.513Z,81.20
2017-09-24T20:08:53.192Z,82.20
2017-09-24T20:11:21.960Z,83.30
2017-09-24T20:16:18.767Z,85.00
2017-09-24T20:18:47.826Z,85.70
2017-09-24T20:21:16.205Z,85.90
2017-09-24T20:26:13.619Z,85.90
2017-09-24T20:28:41.896Z,86.70
2017-09-24T20:31:09.584Z,87.10
2017-09-24T20:33:37.130Z,87.60
2017-09-24T20:36:05.397Z,87.50
2017-09-24T20:38:33.746Z,87.40
2017-09-24T20:41:01.245Z,87.90
2017-09-24T20:43:29.374Z,87.60
2017-09-24T20:45:57.668Z,87.80
2017-09-24T20:48:25.785Z,88.30
2017-09-24T20:50:53.330Z,88.40
2017-09-24T20:53:21.020Z,88.50
2017-09-24T20:58:18.160Z,88.30
2017-09-24T21:00:46.603Z,87.40
2017-09-24T21:03:14.117Z,86.60
2017-09-24T21:05:43.269Z,86.60
2017-09-24T21:08:10.780Z,87.10
2017-09-24T21:10:38.476Z,87.80
2017-09-24T21:13:06.179Z,88.40
2017-09-24T21:15:33.714Z,88.60
2017-09-24T21:18:01.221Z,89.50
2017-09-24T21:20:30.465Z,90.50
2017-09-24T21:22:58.360Z,91.50
2017-09-24T21:25:26.807Z,92.70
2017-09-24T21:27:54.353Z,92.50
2017-09-24T21:30:22.270Z,92.50
2017-09-24T21:32:51.165Z,93.10
2017-09-24T21:35:18.748Z,92.90
2017-09-24T21:37:47.429Z,93.00
2017-09-24T21:40:15.317Z,92.90
2017-09-24T21:42:42.866Z,92.90
2017-09-24T21:45:10.371Z,92.90
2017-09-24T21:47:38.728Z,92.90
2017-09-24T21:50:06.291Z,92.70
2017-09-24T21:52:33.800Z,93.00
2017-09-24T21:55:01.395Z,92.60
2017-09-24T21:57:28.904Z,92.90
2017-09-24T21:59:57.214Z,94.40
2017-09-24T22:02:24.713Z,93.10
2017-09-24T22:04:52.583Z,92.90
2017-09-24T22:07:20.867Z,92.40
2017-09-24T22:09:48.409Z,92.30
2017-09-24T22:12:15.944Z,92.50
2017-09-24T22:17:12.330Z,93.00
2017-09-24T22:19:39.882Z,92.90
2017-09-24T22:22:07.384Z,92.80
2017-09-24T22:24:34.951Z,92.90
2017-09-24T22:27:03.056Z,92.70
2017-09-24T22:29:30.572Z,92.60
2017-09-24T22:31:58.506Z,92.10
2017-09-24T22:34:26.049Z,92.10
2017-09-24T22:36:53.644Z,91.80
2017-09-24T22:39:21.340Z,91.80
2017-09-24T22:41:49.657Z,91.40
2017-09-24T22:44:17.198Z,91.70
2017-09-24T22:46:45.583Z,91.30
2017-09-24T22:49:13.081Z,91.70
2017-09-24T22:51:41.389Z,92.50
2017-09-24T22:54:09.118Z,92.80
2017-09-24T22:56:36.670Z,92.50
2017-09-24T22:59:05.309Z,92.70
2017-09-24T23:01:32.848Z,93.70
2017-09-24T23:04:00.556Z,93.40
2017-09-24T23:06:28.098Z,93.20
2017-09-24T23:08:55.649Z,93.80
2017-09-24T23:11:23.197Z,93.70
2017-09-24T23:13:50.684Z,93.50
2017-09-24T23:16:18.285Z,94.00
2017-09-24T23:18:46.579Z,94.80
2017-09-24T23:21:14.881Z,94.70
2017-09-24T23:23:43.564Z,94.10
2017-09-24T23:26:11.230Z,94.60
2017-09-24T23:28:38.724Z,94.60
2017-09-24T23:31:06.265Z,95.60
2017-09-24T23:33:34.722Z,95.80
2017-09-24T23:36:03.772Z,96.20
2017-09-24T23:38:32.296Z,96.80
2017-09-24T23:40:59.785Z,96.60
2017-09-24T23:43:28.077Z,96.40
2017-09-24T23:45:55.621Z,97.00
2017-09-24T23:48:23.173Z,97.40
2017-09-24T23:50:50.684Z,97.30
2017-09-24T23:53:19.728Z,96.60
2017-09-24T23:55:48.360Z,96.20
2017-09-24T23:58:16.039Z,96.50
